sensor_id;sensor_type;location;lat;lon;timestamp;pressure;altitude;pressure_sealevel;temperature;humidity
14242;BME280;7205;50.864;12.766;2023-02-18T00:00:29;97985.94;;;9.53;100.00
14242;BME280;7205;50.864;12.766;2023-02-18T00:02:56;97981.66;;;9.52;100.00
14242;BME280;7205;50.864;12.766;2023-02-18T00:05:23;97985.09;;;9.53;100.00
14242;BME280;7205;50.864;12.766;2023-02-18T00:07:50;97977.06;;;9.54;100.00
14242;BME280;7205;50.864;12.766;2023-02-18T00:10:17;97988.41;;;9.55;100.00
14242;BME280;7205;50.864;12.766;2023-02-18T00:12:44;97992.88;;;9.54;100.00
14242;BME280;7205;50.864;12.766;2023-02-18T00:15:13;98026.31;;;9.54;100.00
14242;BME280;7205;50.864;12.766;2023-02-18T00:17:40;98002.56;;;9.46;100.00
14242;BME280;7205;50.864;12.766;2023-02-18T00:20:07;97991.00;;;9.39;100.00
14242;BME280;7205;50.864;12.766;2023-02-18T00:22:34;97996.59;;;9.36;100.00
14242;BME280;7205;50.864;12.766;2023-02-18T00:25:01;97984.53;;;9.33;100.00
14242;BME280;7205;50.864;12.766;2023-02-18T00:27:28;97980.28;;;9.32;100.00
14242;BME280;7205;50.864;12.766;2023-02-18T00:29:55;97985.53;;;9.32;100.00
14242;BME280;7205;50.864;12.766;2023-02-18T00:32:26;97978.75;;;9.30;100.00
14242;BME280;7205;50.864;12.766;2023-02-18T00:34:53;97988.97;;;9.33;100.00
14242;BME280;7205;50.864;12.766;2023-02-18T00:37:20;97989.81;;;9.33;100.00
14242;BME280;7205;50.864;12.766;2023-02-18T00:39:47;97988.84;;;9.34;100.00
14242;BME280;7205;50.864;12.766;2023-02-18T00:42:13;97984.22;;;9.36;100.00
14242;BME280;7205;50.864;12.766;2023-02-18T00:44:40;97984.22;;;9.36;100.00
14242;BME280;7205;50.864;12.766;2023-02-18T00:47:07;98000.53;;;9.40;100.00
14242;BME280;7205;50.864;12.766;2023-02-18T00:49:35;97990.00;;;9.40;100.00
14242;BME280;7205;50.864;12.766;2023-02-18T00:52:03;97994.13;;;9.42;100.00
14242;BME280;7205;50.864;12.766;2023-02-18T00:54:30;98000.09;;;9.44;100.00
14242;BME280;7205;50.864;12.766;2023-02-18T00:56:56;97998.75;;;9.48;100.00
14242;BME280;7205;50.864;12.766;2023-02-18T00:59:24;97995.00;;;9.51;100.00
14242;BME280;7205;50.864;12.766;2023-02-18T01:01:51;97989.56;;;9.52;100.00
14242;BME280;7205;50.864;12.766;2023-02-18T01:04:19;97987.59;;;9.54;100.00
14242;BME280;7205;50.864;12.766;2023-02-18T01:06:48;97987.72;;;9.53;100.00
14242;BME280;7205;50.864;12.766;2023-02-18T01:09:15;97997.81;;;9.57;100.00
14242;BME280;7205;50.864;12.766;2023-02-18T01:11:43;97991.56;;;9.58;100.00
14242;BME280;7205;50.864;12.766;2023-02-18T01:14:10;97987.28;;;9.57;100.00
14242;BME280;7205;50.864;12.766;2023-02-18T01:16:36;97988.06;;;9.58;100.00
14242;BME280;7205;50.864;12.766;2023-02-18T01:19:07;97998.50;;;9.59;100.00
14242;BME280;7205;50.864;12.766;2023-02-18T01:21:33;97992.88;;;9.62;100.00
14242;BME280;7205;50.864;12.766;2023-02-18T01:24:02;97992.06;;;9.62;100.00
14242;BME280;7205;50.864;12.766;2023-02-18T01:26:29;97994.53;;;9.63;100.00
14242;BME280;7205;50.864;12.766;2023-02-18T01:28:56;97989.41;;;9.62;100.00
14242;BME280;7205;50.864;12.766;2023-02-18T01:31:23;97988.41;;;9.63;100.00
14242;BME280;7205;50.864;12.766;2023-02-18T01:33:50;97998.84;;;9.64;100.00
14242;BME280;7205;50.864;12.766;2023-02-18T01:36:17;97990.41;;;9.61;100.00
14242;BME280;7205;50.864;12.766;2023-02-18T01:38:43;97987.28;;;9.65;100.00
14242;BME280;7205;50.864;12.766;2023-02-18T01:41:12;97989.09;;;9.65;100.00
14242;BME280;7205;50.864;12.766;2023-02-18T01:43:39;97989.25;;;9.63;100.00
14242;BME280;7205;50.864;12.766;2023-02-18T01:46:14;97983.47;;;9.60;100.00
14242;BME280;7205;50.864;12.766;2023-02-18T01:48:47;97980.03;;;9.59;100.00
14242;BME280;7205;50.864;12.766;2023-02-18T01:51:18;97979.03;;;9.60;100.00
14242;BME280;7205;50.864;12.766;2023-02-18T01:53:49;97973.75;;;9.60;100.00
14242;BME280;7205;50.864;12.766;2023-02-18T01:56:23;97972.13;;;9.59;100.00
14242;BME280;7205;50.864;12.766;2023-02-18T01:58:53;97978.03;;;9.61;100.00
14242;BME280;7205;50.864;12.766;2023-02-18T02:01:20;97976.41;;;9.60;100.00
14242;BME280;7205;50.864;12.766;2023-02-18T02:03:47;97985.94;;;9.61;100.00
14242;BME280;7205;50.864;12.766;2023-02-18T02:06:16;97978.88;;;9.62;100.00
14242;BME280;7205;50.864;12.766;2023-02-18T02:08:44;97967.66;;;9.60;100.00
14242;BME280;7205;50.864;12.766;2023-02-18T02:11:46;97973.94;;;9.59;100.00
14242;BME280;7205;50.864;12.766;2023-02-18T02:14:29;97978.53;;;9.57;100.00
14242;BME280;7205;50.864;12.766;2023-02-18T02:17:03;97982.97;;;9.56;100.00
14242;BME280;7205;50.864;12.766;2023-02-18T02:22:41;97989.06;;;9.49;100.00
14242;BME280;7205;50.864;12.766;2023-02-18T02:25:19;97987.72;;;9.45;100.00
14242;BME280;7205;50.864;12.766;2023-02-18T02:28:18;97997.91;;;9.40;100.00
14242;BME280;7205;50.864;12.766;2023-02-18T02:31:15;97999.22;;;9.36;100.00
14242;BME280;7205;50.864;12.766;2023-02-18T02:36:54;97989.94;;;9.24;100.00
14242;BME280;7205;50.864;12.766;2023-02-18T02:39:29;97989.25;;;9.14;100.00
14242;BME280;7205;50.864;12.766;2023-02-18T02:42:05;97988.22;;;9.07;100.00
14242;BME280;7205;50.864;12.766;2023-02-18T02:44:39;97988.84;;;9.01;100.00
14242;BME280;7205;50.864;12.766;2023-02-18T02:47:13;97995.56;;;8.95;100.00
14242;BME280;7205;50.864;12.766;2023-02-18T02:49:47;97996.84;;;8.91;100.00
14242;BME280;7205;50.864;12.766;2023-02-18T02:52:20;97991.06;;;8.87;100.00
14242;BME280;7205;50.864;12.766;2023-02-18T02:54:51;97999.94;;;8.86;100.00
14242;BME280;7205;50.864;12.766;2023-02-18T02:57:41;98003.06;;;8.82;100.00
14242;BME280;7205;50.864;12.766;2023-02-18T03:00:15;98004.34;;;8.78;100.00
14242;BME280;7205;50.864;12.766;2023-02-18T03:02:59;97988.84;;;8.75;100.00
14242;BME280;7205;50.864;12.766;2023-02-18T03:05:38;97995.13;;;8.74;100.00
14242;BME280;7205;50.864;12.766;2023-02-18T03:08:31;97997.22;;;8.70;100.00
14242;BME280;7205;50.864;12.766;2023-02-18T03:11:05;97983.22;;;8.70;100.00
14242;BME280;7205;50.864;12.766;2023-02-18T03:13:55;98000.50;;;8.72;100.00
14242;BME280;7205;50.864;12.766;2023-02-18T03:16:33;97989.00;;;8.73;100.00
14242;BME280;7205;50.864;12.766;2023-02-18T03:19:07;97988.03;;;8.74;100.00
14242;BME280;7205;50.864;12.766;2023-02-18T03:21:40;97986.06;;;8.76;100.00
14242;BME280;7205;50.864;12.766;2023-02-18T03:24:15;97990.34;;;8.77;100.00
14242;BME280;7205;50.864;12.766;2023-02-18T03:26:46;97995.59;;;8.77;100.00
14242;BME280;7205;50.864;12.766;2023-02-18T03:29:15;97990.50;;;8.76;100.00
14242;BME280;7205;50.864;12.766;2023-02-18T03:31:48;98005.00;;;8.80;100.00
14242;BME280;7205;50.864;12.766;2023-02-18T03:34:22;97987.56;;;8.79;100.00
14242;BME280;7205;50.864;12.766;2023-02-18T03:36:52;97992.00;;;8.78;100.00
14242;BME280;7205;50.864;12.766;2023-02-18T03:39:22;97982.97;;;8.81;100.00
14242;BME280;7205;50.864;12.766;2023-02-18T03:41:52;97976.56;;;8.83;100.00
14242;BME280;7205;50.864;12.766;2023-02-18T03:44:19;97970.31;;;8.84;100.00
14242;BME280;7205;50.864;12.766;2023-02-18T03:46:46;97968.19;;;8.88;100.00
14242;BME280;7205;50.864;12.766;2023-02-18T03:49:14;97976.78;;;8.90;100.00
14242;BME280;7205;50.864;12.766;2023-02-18T03:51:41;97965.25;;;8.91;100.00
14242;BME280;7205;50.864;12.766;2023-02-18T03:54:09;97964.44;;;8.91;100.00
14242;BME280;7205;50.864;12.766;2023-02-18T03:56:41;97974.66;;;8.94;100.00
14242;BME280;7205;50.864;12.766;2023-02-18T03:59:09;97977.81;;;8.97;100.00
14242;BME280;7205;50.864;12.766;2023-02-18T04:01:37;97988.00;;;9.00;100.00
14242;BME280;7205;50.864;12.766;2023-02-18T04:04:04;97982.59;;;9.02;100.00
14242;BME280;7205;50.864;12.766;2023-02-18T04:06:31;97982.44;;;9.03;100.00
14242;BME280;7205;50.864;12.766;2023-02-18T04:08:58;97985.22;;;9.02;100.00
14242;BME280;7205;50.864;12.766;2023-02-18T04:11:25;97978.84;;;9.04;100.00
14242;BME280;7205;50.864;12.766;2023-02-18T04:13:53;97983.25;;;9.04;100.00
14242;BME280;7205;50.864;12.766;2023-02-18T04:16:20;97984.22;;;9.03;100.00
14242;BME280;7205;50.864;12.766;2023-02-18T04:18:46;97980.13;;;9.00;100.00
14242;BME280;7205;50.864;12.766;2023-02-18T04:21:13;97985.69;;;8.97;100.00
14242;BME280;7205;50.864;12.766;2023-02-18T04:23:41;97979.59;;;8.97;100.00
14242;BME280;7205;50.864;12.766;2023-02-18T04:26:08;97978.47;;;8.99;100.00
14242;BME280;7205;50.864;12.766;2023-02-18T04:28:35;97983.75;;;8.99;100.00
14242;BME280;7205;50.864;12.766;2023-02-18T04:31:03;97978.47;;;8.99;100.00
14242;BME280;7205;50.864;12.766;2023-02-18T04:33:30;97983.75;;;8.99;100.00
14242;BME280;7205;50.864;12.766;2023-02-18T04:35:57;97975.00;;;8.99;100.00
14242;BME280;7205;50.864;12.766;2023-02-18T04:38:24;97964.63;;;8.97;100.00
14242;BME280;7205;50.864;12.766;2023-02-18T04:40:50;97972.53;;;8.97;100.00
14242;BME280;7205;50.864;12.766;2023-02-18T04:43:17;97968.06;;;8.98;100.00
14242;BME280;7205;50.864;12.766;2023-02-18T04:45:44;97970.56;;;8.99;100.00
14242;BME280;7205;50.864;12.766;2023-02-18T04:48:12;97975.00;;;8.99;100.00
14242;BME280;7205;50.864;12.766;2023-02-18T04:50:39;97988.19;;;8.99;100.00
14242;BME280;7205;50.864;12.766;2023-02-18T04:53:05;97980.44;;;8.97;100.00
14242;BME280;7205;50.864;12.766;2023-02-18T04:55:32;97982.41;;;8.95;100.00
14242;BME280;7205;50.864;12.766;2023-02-18T04:57:59;97988.50;;;8.96;100.00
14242;BME280;7205;50.864;12.766;2023-02-18T05:00:26;97983.38;;;8.94;100.00
14242;BME280;7205;50.864;12.766;2023-02-18T05:02:53;97982.41;;;8.95;100.00
14242;BME280;7205;50.864;12.766;2023-02-18T05:05:21;97977.97;;;8.96;100.00
14242;BME280;7205;50.864;12.766;2023-02-18T05:07:48;97974.34;;;8.97;100.00
14242;BME280;7205;50.864;12.766;2023-02-18T05:10:16;97968.91;;;8.98;100.00
14242;BME280;7205;50.864;12.766;2023-02-18T05:12:43;97949.63;;;8.98;100.00
14242;BME280;7205;50.864;12.766;2023-02-18T05:15:10;97956.41;;;9.00;100.00
14242;BME280;7205;50.864;12.766;2023-02-18T05:17:37;97946.56;;;9.02;100.00
14242;BME280;7205;50.864;12.766;2023-02-18T05:20:05;97940.28;;;9.03;100.00
14242;BME280;7205;50.864;12.766;2023-02-18T05:22:33;97945.41;;;9.05;100.00
14242;BME280;7205;50.864;12.766;2023-02-18T05:25:00;97939.16;;;9.06;100.00
14242;BME280;7205;50.864;12.766;2023-02-18T05:27:27;97936.53;;;9.06;100.00
14242;BME280;7205;50.864;12.766;2023-02-18T05:29:54;97919.88;;;9.05;100.00
14242;BME280;7205;50.864;12.766;2023-02-18T05:32:20;97923.19;;;9.07;100.00
14242;BME280;7205;50.864;12.766;2023-02-18T05:34:47;97929.25;;;9.08;100.00
14242;BME280;7205;50.864;12.766;2023-02-18T05:37:14;97916.94;;;9.08;100.00
14242;BME280;7205;50.864;12.766;2023-02-18T05:39:44;97897.53;;;9.09;100.00
14242;BME280;7205;50.864;12.766;2023-02-18T05:42:11;97920.06;;;9.12;100.00
14242;BME280;7205;50.864;12.766;2023-02-18T05:44:38;97912.16;;;9.12;100.00
14242;BME280;7205;50.864;12.766;2023-02-18T05:47:07;97896.38;;;9.12;100.00
14242;BME280;7205;50.864;12.766;2023-02-18T05:49:35;97887.34;;;9.14;100.00
14242;BME280;7205;50.864;12.766;2023-02-18T05:52:03;97884.38;;;9.17;100.00
14242;BME280;7205;50.864;12.766;2023-02-18T05:54:30;97882.41;;;9.19;100.00
14242;BME280;7205;50.864;12.766;2023-02-18T05:56:58;97874.97;;;9.23;100.00
14242;BME280;7205;50.864;12.766;2023-02-18T05:59:25;97870.38;;;9.25;100.00
14242;BME280;7205;50.864;12.766;2023-02-18T06:01:52;97877.97;;;9.28;100.00
14242;BME280;7205;50.864;12.766;2023-02-18T06:04:19;97876.84;;;9.30;100.00
14242;BME280;7205;50.864;12.766;2023-02-18T06:06:46;97870.41;;;9.33;100.00
14242;BME280;7205;50.864;12.766;2023-02-18T06:09:13;97868.44;;;9.35;100.00
14242;BME280;7205;50.864;12.766;2023-02-18T06:11:39;97871.75;;;9.37;100.00
14242;BME280;7205;50.864;12.766;2023-02-18T06:14:08;97865.34;;;9.39;100.00
14242;BME280;7205;50.864;12.766;2023-02-18T06:16:34;97852.28;;;9.38;100.00
14242;BME280;7205;50.864;12.766;2023-02-18T06:19:01;97833.84;;;9.38;100.00
14242;BME280;7205;50.864;12.766;2023-02-18T06:21:28;97847.84;;;9.38;100.00
14242;BME280;7205;50.864;12.766;2023-02-18T06:23:55;97842.41;;;9.40;100.00
14242;BME280;7205;50.864;12.766;2023-02-18T06:26:22;97838.97;;;9.39;100.00
14242;BME280;7205;50.864;12.766;2023-02-18T06:28:49;97847.69;;;9.40;100.00
14242;BME280;7205;50.864;12.766;2023-02-18T06:31:17;97840.63;;;9.40;100.00
14242;BME280;7205;50.864;12.766;2023-02-18T06:33:44;97845.72;;;9.42;100.00
14242;BME280;7205;50.864;12.766;2023-02-18T06:36:11;97845.56;;;9.43;100.00
14242;BME280;7205;50.864;12.766;2023-02-18T06:38:39;97849.03;;;9.44;100.00
14242;BME280;7205;50.864;12.766;2023-02-18T06:41:07;97847.22;;;9.44;100.00
14242;BME280;7205;50.864;12.766;2023-02-18T06:43:34;97849.69;;;9.46;100.00
14242;BME280;7205;50.864;12.766;2023-02-18T06:46:02;97838.97;;;9.47;100.00
14242;BME280;7205;50.864;12.766;2023-02-18T06:48:31;97840.44;;;9.50;100.00
14242;BME280;7205;50.864;12.766;2023-02-18T06:50:58;97836.69;;;9.52;100.00
14242;BME280;7205;50.864;12.766;2023-02-18T06:53:25;97827.59;;;9.55;100.00
14242;BME280;7205;50.864;12.766;2023-02-18T06:55:52;97827.28;;;9.58;100.00
14242;BME280;7205;50.864;12.766;2023-02-18T06:58:19;97824.16;;;9.62;100.00
14242;BME280;7205;50.864;12.766;2023-02-18T07:00:47;97825.47;;;9.66;100.00
14242;BME280;7205;50.864;12.766;2023-02-18T07:03:14;97810.16;;;9.70;100.00
14242;BME280;7205;50.864;12.766;2023-02-18T07:05:42;97819.22;;;9.75;100.00
14242;BME280;7205;50.864;12.766;2023-02-18T07:08:09;97815.28;;;9.79;100.00
14242;BME280;7205;50.864;12.766;2023-02-18T07:10:36;97813.75;;;9.85;100.00
14242;BME280;7205;50.864;12.766;2023-02-18T07:13:03;97799.25;;;9.89;100.00
14242;BME280;7205;50.864;12.766;2023-02-18T07:15:30;97784.72;;;9.93;100.00
14242;BME280;7205;50.864;12.766;2023-02-18T07:17:57;97790.50;;;9.96;100.00
14242;BME280;7205;50.864;12.766;2023-02-18T07:20:24;97783.91;;;10.00;100.00
14242;BME280;7205;50.864;12.766;2023-02-18T07:22:52;97781.75;;;10.04;100.00
14242;BME280;7205;50.864;12.766;2023-02-18T07:25:19;97765.44;;;10.08;100.00
14242;BME280;7205;50.864;12.766;2023-02-18T07:27:46;97766.78;;;10.13;100.00
14242;BME280;7205;50.864;12.766;2023-02-18T07:30:13;97757.50;;;10.17;100.00
14242;BME280;7205;50.864;12.766;2023-02-18T07:32:40;97755.34;;;10.20;100.00
14242;BME280;7205;50.864;12.766;2023-02-18T07:35:09;97755.00;;;10.23;100.00
14242;BME280;7205;50.864;12.766;2023-02-18T07:37:37;97744.78;;;10.28;100.00
14242;BME280;7205;50.864;12.766;2023-02-18T07:40:06;97746.09;;;10.32;100.00
14242;BME280;7205;50.864;12.766;2023-02-18T07:42:33;97738.66;;;10.36;100.00
14242;BME280;7205;50.864;12.766;2023-02-18T07:45:00;97734.69;;;10.40;100.00
14242;BME280;7205;50.864;12.766;2023-02-18T07:47:27;97737.47;;;10.46;100.00
14242;BME280;7205;50.864;12.766;2023-02-18T07:49:54;97734.13;;;10.52;100.00
14242;BME280;7205;50.864;12.766;2023-02-18T07:52:21;97730.31;;;10.55;100.00
14242;BME280;7205;50.864;12.766;2023-02-18T07:54:47;97737.53;;;10.61;100.00
14242;BME280;7205;50.864;12.766;2023-02-18T07:57:16;97722.84;;;10.66;100.00
14242;BME280;7205;50.864;12.766;2023-02-18T07:59:43;97713.38;;;10.72;100.00
14242;BME280;7205;50.864;12.766;2023-02-18T08:02:14;97712.03;;;10.76;100.00
14242;BME280;7205;50.864;12.766;2023-02-18T08:04:43;97723.75;;;10.81;100.00
14242;BME280;7205;50.864;12.766;2023-02-18T08:07:12;97717.28;;;10.84;100.00
14242;BME280;7205;50.864;12.766;2023-02-18T08:09:38;97721.03;;;10.89;100.00
14242;BME280;7205;50.864;12.766;2023-02-18T08:12:06;97696.72;;;10.94;100.00
14242;BME280;7205;50.864;12.766;2023-02-18T08:14:34;97703.97;;;11.00;100.00
14242;BME280;7205;50.864;12.766;2023-02-18T08:17:01;97697.97;;;11.06;100.00
14242;BME280;7205;50.864;12.766;2023-02-18T08:19:28;97697.25;;;11.12;100.00
14242;BME280;7205;50.864;12.766;2023-02-18T08:21:54;97696.56;;;11.18;100.00
14242;BME280;7205;50.864;12.766;2023-02-18T08:24:23;97693.84;;;11.26;100.00
14242;BME280;7205;50.864;12.766;2023-02-18T08:26:52;97678.09;;;11.32;100.00
14242;BME280;7205;50.864;12.766;2023-02-18T08:29:19;97669.63;;;11.37;100.00
14242;BME280;7205;50.864;12.766;2023-02-18T08:31:47;97671.56;;;11.43;100.00
14242;BME280;7205;50.864;12.766;2023-02-18T08:34:14;97676.94;;;11.50;99.98
14242;BME280;7205;50.864;12.766;2023-02-18T08:36:40;97665.81;;;11.54;98.85
14242;BME280;7205;50.864;12.766;2023-02-18T08:39:07;97657.50;;;11.57;97.24
14242;BME280;7205;50.864;12.766;2023-02-18T08:41:34;97658.53;;;11.56;96.19
14242;BME280;7205;50.864;12.766;2023-02-18T08:44:01;97660.53;;;11.54;96.23
14242;BME280;7205;50.864;12.766;2023-02-18T08:46:27;97660.91;;;11.51;95.94
14242;BME280;7205;50.864;12.766;2023-02-18T08:48:56;97647.03;;;11.49;95.72
14242;BME280;7205;50.864;12.766;2023-02-18T08:51:23;97656.97;;;11.47;95.35
14242;BME280;7205;50.864;12.766;2023-02-18T08:53:50;97652.03;;;11.44;95.57
14242;BME280;7205;50.864;12.766;2023-02-18T08:56:17;97653.22;;;11.42;95.14
14242;BME280;7205;50.864;12.766;2023-02-18T08:58:44;97645.31;;;11.42;95.60
14242;BME280;7205;50.864;12.766;2023-02-18T09:01:12;97641.63;;;11.43;95.94
14242;BME280;7205;50.864;12.766;2023-02-18T09:03:39;97641.63;;;11.43;95.83
14242;BME280;7205;50.864;12.766;2023-02-18T09:06:08;97638.16;;;11.42;95.97
14242;BME280;7205;50.864;12.766;2023-02-18T09:08:34;97633.72;;;11.43;95.23
14242;BME280;7205;50.864;12.766;2023-02-18T09:11:02;97630.88;;;11.44;95.65
14242;BME280;7205;50.864;12.766;2023-02-18T09:13:30;97620.97;;;11.46;95.00
14242;BME280;7205;50.864;12.766;2023-02-18T09:15:59;97640.28;;;11.47;95.47
14242;BME280;7205;50.864;12.766;2023-02-18T09:18:26;97636.81;;;11.46;95.02
14242;BME280;7205;50.864;12.766;2023-02-18T09:20:55;97644.94;;;11.45;94.76
14242;BME280;7205;50.864;12.766;2023-02-18T09:23:25;97631.53;;;11.46;95.00
14242;BME280;7205;50.864;12.766;2023-02-18T09:25:52;97631.81;;;11.51;95.16
14242;BME280;7205;50.864;12.766;2023-02-18T09:28:20;97627.16;;;11.53;94.69
14242;BME280;7205;50.864;12.766;2023-02-18T09:30:46;97615.56;;;11.54;95.03
14242;BME280;7205;50.864;12.766;2023-02-18T09:33:14;97600.34;;;11.56;94.87
14242;BME280;7205;50.864;12.766;2023-02-18T09:35:41;97606.28;;;11.58;95.68
14242;BME280;7205;50.864;12.766;2023-02-18T09:38:10;97597.97;;;11.61;95.71
14242;BME280;7205;50.864;12.766;2023-02-18T09:40:41;97598.63;;;11.63;95.90
14242;BME280;7205;50.864;12.766;2023-02-18T09:43:15;97585.91;;;11.67;95.58
14242;BME280;7205;50.864;12.766;2023-02-18T09:45:44;97589.78;;;11.71;95.18
14242;BME280;7205;50.864;12.766;2023-02-18T09:48:11;97593.91;;;11.73;95.02
14242;BME280;7205;50.864;12.766;2023-02-18T09:50:37;97570.38;;;11.78;94.84
14242;BME280;7205;50.864;12.766;2023-02-18T09:53:04;97568.00;;;11.83;93.62
14242;BME280;7205;50.864;12.766;2023-02-18T09:55:34;97562.16;;;11.88;93.82
14242;BME280;7205;50.864;12.766;2023-02-18T09:58:07;97578.28;;;11.93;93.50
14242;BME280;7205;50.864;12.766;2023-02-18T10:00:40;97571.63;;;11.97;92.84
14242;BME280;7205;50.864;12.766;2023-02-18T10:03:11;97561.84;;;11.97;92.38
14242;BME280;7205;50.864;12.766;2023-02-18T10:05:42;97557.38;;;11.98;92.36
14242;BME280;7205;50.864;12.766;2023-02-18T10:08:18;97553.91;;;11.97;91.68
14242;BME280;7205;50.864;12.766;2023-02-18T10:10:46;97560.47;;;12.01;92.23
14242;BME280;7205;50.864;12.766;2023-02-18T10:13:16;97560.28;;;12.03;91.81
14242;BME280;7205;50.864;12.766;2023-02-18T10:15:45;97554.34;;;12.01;91.09
14242;BME280;7205;50.864;12.766;2023-02-18T10:18:20;97547.50;;;12.06;90.99
14242;BME280;7205;50.864;12.766;2023-02-18T10:20:50;97551.78;;;12.07;90.66
14242;BME280;7205;50.864;12.766;2023-02-18T10:23:19;97548.59;;;12.12;90.74
14242;BME280;7205;50.864;12.766;2023-02-18T10:25:47;97545.13;;;12.11;90.21
14242;BME280;7205;50.864;12.766;2023-02-18T10:28:17;97543.09;;;12.13;90.03
14242;BME280;7205;50.864;12.766;2023-02-18T10:30:47;97538.25;;;12.17;89.96
14242;BME280;7205;50.864;12.766;2023-02-18T10:33:29;97541.34;;;12.20;90.00
14242;BME280;7205;50.864;12.766;2023-02-18T10:36:08;97530.84;;;12.27;89.85
14242;BME280;7205;50.864;12.766;2023-02-18T10:38:42;97530.44;;;12.30;89.39
14242;BME280;7205;50.864;12.766;2023-02-18T10:41:16;97518.84;;;12.31;88.74
14242;BME280;7205;50.864;12.766;2023-02-18T10:43:54;97518.50;;;12.34;88.71
14242;BME280;7205;50.864;12.766;2023-02-18T10:46:30;97503.59;;;12.33;87.87
14242;BME280;7205;50.864;12.766;2023-02-18T10:49:06;97500.56;;;12.36;88.24
14242;BME280;7205;50.864;12.766;2023-02-18T10:51:42;97498.75;;;12.36;88.00
14242;BME280;7205;50.864;12.766;2023-02-18T10:54:13;97501.38;;;12.36;87.53
14242;BME280;7205;50.864;12.766;2023-02-18T10:56:41;97508.50;;;12.36;87.33
14242;BME280;7205;50.864;12.766;2023-02-18T10:59:18;97500.94;;;12.33;87.14
14242;BME280;7205;50.864;12.766;2023-02-18T11:01:53;97495.47;;;12.34;87.06
14242;BME280;7205;50.864;12.766;2023-02-18T11:04:23;97479.38;;;12.36;87.28
14242;BME280;7205;50.864;12.766;2023-02-18T11:06:51;97481.22;;;12.35;86.87
14242;BME280;7205;50.864;12.766;2023-02-18T11:09:26;97479.97;;;12.31;85.42
14242;BME280;7205;50.864;12.766;2023-02-18T11:12:01;97475.06;;;12.28;84.39
14242;BME280;7205;50.864;12.766;2023-02-18T11:14:42;97487.00;;;12.24;84.77
14242;BME280;7205;50.864;12.766;2023-02-18T11:17:16;97465.84;;;12.24;84.20
14242;BME280;7205;50.864;12.766;2023-02-18T11:19:51;97480.91;;;12.24;83.85
14242;BME280;7205;50.864;12.766;2023-02-18T11:22:20;97466.47;;;12.26;83.20
14242;BME280;7205;50.864;12.766;2023-02-18T11:24:47;97467.69;;;12.24;82.21
14242;BME280;7205;50.864;12.766;2023-02-18T11:27:23;97466.66;;;12.25;82.09
14242;BME280;7205;50.864;12.766;2023-02-18T11:29:53;97470.75;;;12.27;82.13
14242;BME280;7205;50.864;12.766;2023-02-18T11:32:28;97466.28;;;12.28;81.44
14242;BME280;7205;50.864;12.766;2023-02-18T11:34:55;97461.38;;;12.25;80.56
14242;BME280;7205;50.864;12.766;2023-02-18T11:37:23;97453.63;;;12.23;80.33
14242;BME280;7205;50.864;12.766;2023-02-18T11:39:52;97459.28;;;12.20;79.55
14242;BME280;7205;50.864;12.766;2023-02-18T11:42:22;97461.31;;;12.18;79.86
14242;BME280;7205;50.864;12.766;2023-02-18T11:44:53;97457.44;;;12.21;79.36
14242;BME280;7205;50.864;12.766;2023-02-18T11:47:23;97462.38;;;12.24;79.08
14242;BME280;7205;50.864;12.766;2023-02-18T11:50:14;97459.09;;;12.22;78.12
14242;BME280;7205;50.864;12.766;2023-02-18T11:52:43;97457.84;;;12.18;78.16
14242;BME280;7205;50.864;12.766;2023-02-18T11:55:16;97463.06;;;12.11;78.13
14242;BME280;7205;50.864;12.766;2023-02-18T11:57:47;97462.56;;;12.01;78.08
14242;BME280;7205;50.864;12.766;2023-02-18T12:00:23;97452.94;;;11.94;78.23
14242;BME280;7205;50.864;12.766;2023-02-18T12:02:51;97441.25;;;11.88;78.01
14242;BME280;7205;50.864;12.766;2023-02-18T12:05:23;97437.34;;;11.84;78.12
14242;BME280;7205;50.864;12.766;2023-02-18T12:07:57;97425.72;;;11.79;78.38
14242;BME280;7205;50.864;12.766;2023-02-18T12:10:29;97428.69;;;11.76;78.43
14242;BME280;7205;50.864;12.766;2023-02-18T12:13:01;97434.94;;;11.68;77.73
14242;BME280;7205;50.864;12.766;2023-02-18T12:15:39;97436.66;;;11.61;77.64
14242;BME280;7205;50.864;12.766;2023-02-18T12:18:24;97442.31;;;11.58;77.88
14242;BME280;7205;50.864;12.766;2023-02-18T12:21:13;97426.84;;;11.55;78.25
14242;BME280;7205;50.864;12.766;2023-02-18T12:23:52;97432.13;;;11.55;78.08
14242;BME280;7205;50.864;12.766;2023-02-18T12:26:26;97436.78;;;11.53;77.87
14242;BME280;7205;50.864;12.766;2023-02-18T12:29:02;97437.94;;;11.51;77.49
14242;BME280;7205;50.864;12.766;2023-02-18T12:31:57;97444.25;;;11.50;77.16
14242;BME280;7205;50.864;12.766;2023-02-18T12:34:47;97441.63;;;11.50;76.84
14242;BME280;7205;50.864;12.766;2023-02-18T12:37:35;97435.94;;;11.53;76.61
14242;BME280;7205;50.864;12.766;2023-02-18T12:40:25;97451.34;;;11.49;76.46
14242;BME280;7205;50.864;12.766;2023-02-18T12:43:05;97443.25;;;11.51;76.69
14242;BME280;7205;50.864;12.766;2023-02-18T12:45:55;97430.84;;;11.51;76.37
14242;BME280;7205;50.864;12.766;2023-02-18T12:48:39;97442.25;;;11.52;76.14
14242;BME280;7205;50.864;12.766;2023-02-18T12:51:18;97431.69;;;11.52;75.37
14242;BME280;7205;50.864;12.766;2023-02-18T12:54:09;97432.47;;;11.52;74.96
14242;BME280;7205;50.864;12.766;2023-02-18T12:56:58;97430.66;;;11.53;73.93
14242;BME280;7205;50.864;12.766;2023-02-18T12:59:53;97421.75;;;11.54;73.91
14242;BME280;7205;50.864;12.766;2023-02-18T13:02:43;97404.59;;;11.50;72.54
14242;BME280;7205;50.864;12.766;2023-02-18T13:05:27;97396.03;;;11.48;72.37
14242;BME280;7205;50.864;12.766;2023-02-18T13:08:11;97409.81;;;11.43;71.45
14242;BME280;7205;50.864;12.766;2023-02-18T13:10:53;97401.06;;;11.43;70.93
14242;BME280;7205;50.864;12.766;2023-02-18T13:13:30;97409.63;;;11.45;71.22
14242;BME280;7205;50.864;12.766;2023-02-18T13:16:01;97399.25;;;11.43;70.71
14242;BME280;7205;50.864;12.766;2023-02-18T13:18:31;97398.41;;;11.43;69.81
14242;BME280;7205;50.864;12.766;2023-02-18T13:21:04;97405.50;;;11.42;70.14
14242;BME280;7205;50.864;12.766;2023-02-18T13:23:34;97408.78;;;11.44;70.27